createdAt,value
2022-12-22T00:02:00.016Z,1.00
2022-12-22T00:04:46.331Z,1.00
2022-12-22T00:07:32.415Z,1.07
2022-12-22T00:10:18.625Z,0.80
2022-12-22T00:13:04.775Z,0.70
2022-12-22T00:15:53.927Z,0.90
2022-12-22T00:18:40.131Z,0.83
2022-12-22T00:21:30.106Z,0.90
2022-12-22T00:24:17.341Z,0.90
2022-12-22T00:27:04.490Z,0.60
2022-12-22T00:29:56.282Z,0.80
2022-12-22T00:32:51.383Z,0.70
2022-12-22T00:35:41.430Z,0.60
2022-12-22T00:38:38.840Z,0.70
2022-12-22T00:41:25.558Z,0.60
2022-12-22T00:44:11.750Z,0.43
2022-12-22T00:47:01.479Z,0.63
2022-12-22T00:49:49.947Z,0.70
2022-12-22T00:52:38.279Z,0.53
2022-12-22T00:55:36.183Z,0.50
2022-12-22T00:58:25.096Z,0.57
2022-12-22T01:01:11.198Z,0.50
2022-12-22T01:03:57.063Z,0.80
2022-12-22T01:06:47.487Z,0.60
2022-12-22T01:09:33.929Z,0.53
2022-12-22T01:12:19.966Z,0.40
2022-12-22T01:15:06.081Z,0.77
2022-12-22T01:17:52.246Z,0.50
2022-12-22T01:20:38.259Z,0.70
2022-12-22T01:23:29.340Z,0.73
2022-12-22T01:26:15.398Z,0.70
2022-12-22T01:29:01.296Z,0.70
2022-12-22T01:31:51.397Z,0.53
2022-12-22T01:34:37.429Z,0.60
2022-12-22T01:37:23.380Z,0.73
2022-12-22T01:40:09.816Z,1.33
2022-12-22T01:42:56.064Z,0.77
2022-12-22T01:45:44.007Z,0.70
2022-12-22T01:48:32.177Z,1.10
2022-12-22T01:51:21.855Z,0.70
2022-12-22T01:54:08.619Z,0.90
2022-12-22T01:56:54.872Z,0.77
2022-12-22T01:59:41.179Z,0.90
2022-12-22T02:02:28.201Z,1.07
2022-12-22T02:05:18.546Z,0.70
2022-12-22T02:08:17.903Z,1.00
2022-12-22T02:11:12.394Z,0.73
2022-12-22T02:14:17.046Z,1.00
2022-12-22T02:17:05.787Z,0.90
2022-12-22T02:19:54.741Z,1.10
2022-12-22T02:22:51.790Z,0.90
2022-12-22T02:25:45.115Z,1.40
2022-12-22T02:28:31.376Z,0.97
2022-12-22T02:31:17.542Z,0.63
2022-12-22T02:34:03.772Z,1.07
2022-12-22T02:37:21.826Z,1.10
2022-12-22T02:40:10.719Z,0.80
2022-12-22T02:43:07.633Z,1.00
2022-12-22T02:46:20.646Z,1.13
2022-12-22T02:49:39.713Z,1.20
2022-12-22T02:52:39.205Z,1.00
2022-12-22T02:55:26.721Z,1.07
2022-12-22T02:58:12.873Z,1.65
2022-12-22T03:00:59.019Z,1.40
2022-12-22T03:03:45.186Z,1.10
2022-12-22T03:06:31.248Z,1.10
2022-12-22T03:09:17.250Z,1.10
2022-12-22T03:12:03.349Z,1.90
2022-12-22T03:14:49.650Z,1.50
2022-12-22T03:17:35.837Z,1.37
2022-12-22T03:20:22.077Z,1.40
2022-12-22T03:23:08.163Z,1.23
2022-12-22T03:25:50.996Z,1.70
2022-12-22T03:28:18.996Z,1.77
2022-12-22T03:30:52.406Z,2.10
2022-12-22T03:33:19.960Z,1.30
2022-12-22T03:35:47.491Z,1.67
2022-12-22T03:38:15.022Z,1.73
2022-12-22T03:40:44.581Z,1.60
2022-12-22T03:43:32.478Z,2.00
2022-12-22T03:46:19.340Z,1.50
2022-12-22T03:49:05.902Z,1.80
2022-12-22T03:51:34.844Z,1.53
2022-12-22T03:54:02.286Z,1.63
2022-12-22T03:56:29.756Z,1.87
2022-12-22T03:58:57.346Z,1.77
2022-12-22T04:01:25.036Z,1.80
2022-12-22T04:03:52.555Z,1.70
2022-12-22T04:06:20.324Z,2.37
2022-12-22T04:08:47.792Z,2.20
2022-12-22T04:11:35.569Z,1.80
2022-12-22T04:14:05.509Z,2.13
2022-12-22T04:16:40.635Z,2.10
2022-12-22T04:19:10.011Z,2.10
2022-12-22T04:21:38.126Z,2.30
2022-12-22T04:24:06.131Z,2.23
2022-12-22T04:26:33.917Z,2.30
2022-12-22T04:29:01.488Z,2.87
2022-12-22T04:31:29.137Z,1.90
2022-12-22T04:33:56.735Z,2.10
2022-12-22T04:36:24.367Z,2.80
2022-12-22T04:38:51.923Z,2.60
2022-12-22T04:41:19.489Z,2.80
2022-12-22T04:43:49.433Z,3.27
2022-12-22T04:46:17.112Z,2.70
2022-12-22T04:48:44.728Z,3.40
2022-12-22T04:51:12.323Z,2.97
2022-12-22T04:53:39.765Z,2.70
2022-12-22T04:56:10.038Z,3.67
2022-12-22T04:58:37.638Z,2.70
2022-12-22T05:01:13.601Z,3.53
2022-12-22T05:03:41.384Z,3.03
2022-12-22T05:06:09.390Z,4.47
2022-12-22T05:08:37.398Z,2.73
2022-12-22T05:11:05.491Z,3.37
2022-12-22T05:13:33.361Z,2.93
2022-12-22T05:16:11.412Z,3.30
2022-12-22T05:18:40.420Z,3.10
2022-12-22T05:21:14.570Z,3.40
2022-12-22T05:23:42.470Z,4.07
2022-12-22T05:26:10.764Z,3.30
2022-12-22T05:28:38.281Z,3.80
2022-12-22T05:31:08.364Z,3.70
2022-12-22T05:33:36.849Z,3.83
2022-12-22T05:36:04.717Z,4.23
2022-12-22T05:38:32.275Z,3.73
2022-12-22T05:41:03.811Z,4.87
2022-12-22T05:43:33.231Z,4.43
2022-12-22T05:46:09.920Z,4.03
2022-12-22T05:48:39.605Z,3.72
2022-12-22T05:51:09.297Z,4.43
2022-12-22T05:53:37.977Z,4.77
2022-12-22T05:56:06.547Z,4.30
2022-12-22T05:58:35.236Z,6.23
2022-12-22T06:01:02.953Z,4.43
2022-12-22T06:03:30.927Z,5.00
2022-12-22T06:05:58.979Z,4.90
2022-12-22T06:08:27.534Z,4.30
2022-12-22T06:10:57.139Z,4.30
2022-12-22T06:13:25.997Z,4.97
2022-12-22T06:15:53.692Z,5.03
2022-12-22T06:18:21.589Z,4.10
2022-12-22T06:20:51.823Z,5.27
2022-12-22T06:23:19.778Z,5.73
2022-12-22T06:26:01.246Z,4.27
2022-12-22T06:28:29.230Z,5.17
2022-12-22T06:30:56.828Z,4.90
2022-12-22T06:33:24.551Z,4.40
2022-12-22T06:35:58.017Z,4.50
2022-12-22T06:38:27.384Z,5.60
2022-12-22T06:40:54.909Z,4.83
2022-12-22T06:43:22.487Z,5.47
2022-12-22T06:45:49.941Z,5.07
2022-12-22T06:48:17.557Z,5.23
2022-12-22T06:50:45.269Z,5.50
2022-12-22T06:53:12.930Z,5.07
2022-12-22T06:55:40.409Z,5.37
2022-12-22T06:58:08.248Z,5.93
2022-12-22T07:00:35.848Z,5.07
2022-12-22T07:03:03.560Z,5.50
2022-12-22T07:05:32.122Z,5.23
2022-12-22T07:08:05.736Z,4.87
2022-12-22T07:10:54.643Z,4.90
2022-12-22T07:13:24.210Z,4.40
2022-12-22T07:15:59.584Z,4.37
2022-12-22T07:18:33.444Z,4.77
2022-12-22T07:21:02.865Z,4.73
2022-12-22T07:23:30.888Z,4.57
2022-12-22T07:25:59.109Z,4.97
2022-12-22T07:28:26.988Z,5.63
2022-12-22T07:30:55.169Z,5.57
2022-12-22T07:33:22.726Z,4.77
2022-12-22T07:36:01.387Z,4.83
2022-12-22T07:38:28.887Z,5.40
2022-12-22T07:41:04.609Z,5.03
2022-12-22T07:43:33.090Z,4.63
2022-12-22T07:46:00.688Z,5.57
2022-12-22T07:48:47.283Z,5.50
2022-12-22T07:51:14.883Z,4.93
2022-12-22T07:53:44.524Z,5.03
2022-12-22T07:56:12.258Z,5.00
2022-12-22T07:58:39.796Z,4.73
2022-12-22T08:01:07.371Z,4.97
2022-12-22T08:03:34.868Z,5.33
2022-12-22T08:06:04.962Z,5.40
2022-12-22T08:08:33.881Z,5.40
2022-12-22T08:11:05.611Z,5.27
2022-12-22T08:13:33.170Z,5.27
2022-12-22T08:16:08.138Z,5.00
2022-12-22T08:18:36.784Z,5.27
2022-12-22T08:21:07.742Z,5.73
2022-12-22T08:23:36.078Z,5.53
2022-12-22T08:26:14.868Z,5.33
2022-12-22T08:28:57.977Z,5.10
2022-12-22T08:31:27.608Z,5.90
2022-12-22T08:33:57.214Z,5.73
2022-12-22T08:36:25.063Z,5.37
2022-12-22T08:38:52.889Z,6.00
2022-12-22T08:41:40.359Z,5.43
2022-12-22T08:44:08.016Z,5.55
2022-12-22T08:46:35.516Z,5.30
2022-12-22T08:49:03.078Z,6.87
2022-12-22T08:51:30.644Z,6.10
2022-12-22T08:54:06.489Z,6.27
2022-12-22T08:56:35.489Z,6.23
2022-12-22T08:59:05.542Z,5.97
2022-12-22T09:01:34.512Z,6.63
2022-12-22T09:04:02.969Z,6.50
2022-12-22T09:06:36.530Z,6.20
2022-12-22T09:09:10.325Z,5.37
2022-12-22T09:11:38.585Z,5.83
2022-12-22T09:14:07.400Z,6.50
2022-12-22T09:16:35.783Z,6.43
2022-12-22T09:19:03.840Z,7.17
2022-12-22T09:21:31.442Z,6.57
2022-12-22T09:23:59.567Z,6.63
2022-12-22T09:26:29.137Z,6.33
2022-12-22T09:28:57.857Z,7.20
2022-12-22T09:31:26.426Z,6.67
2022-12-22T09:33:54.223Z,7.60
2022-12-22T09:36:24.657Z,6.63
2022-12-22T09:38:52.775Z,6.50
2022-12-22T09:41:46.348Z,6.90
2022-12-22T09:44:22.594Z,7.10
2022-12-22T09:46:50.988Z,6.97
2022-12-22T09:49:20.070Z,7.20
2022-12-22T09:52:09.750Z,6.97
2022-12-22T09:54:37.248Z,6.77
2022-12-22T09:57:11.527Z,6.70
2022-12-22T09:59:39.042Z,6.40
2022-12-22T10:02:57.687Z,6.83
2022-12-22T10:05:38.691Z,6.57
2022-12-22T10:08:15.555Z,5.77
2022-12-22T10:10:43.186Z,6.80
2022-12-22T10:13:20.913Z,6.80
2022-12-22T10:15:49.284Z,7.20
2022-12-22T10:18:20.625Z,7.47
2022-12-22T10:21:09.575Z,7.47
2022-12-22T10:23:44.584Z,7.53
2022-12-22T10:26:28.725Z,7.73
2022-12-22T10:29:06.102Z,7.37
2022-12-22T10:31:37.107Z,7.00
2022-12-22T10:34:17.140Z,7.63
2022-12-22T10:36:49.865Z,7.23
2022-12-22T10:39:33.561Z,7.07
2022-12-22T10:42:08.940Z,7.67
2022-12-22T10:44:38.674Z,7.40
2022-12-22T10:47:20.518Z,6.77
2022-12-22T10:52:29.574Z,7.03
2022-12-22T10:55:21.082Z,7.80
2022-12-22T10:57:49.921Z,6.70
2022-12-22T11:00:25.356Z,7.13
2022-12-22T11:02:58.019Z,7.57
2022-12-22T11:05:26.032Z,8.07
2022-12-22T11:07:54.187Z,6.90
2022-12-22T11:10:35.956Z,7.93
2022-12-22T11:13:42.311Z,7.00
2022-12-22T11:16:25.333Z,6.47
2022-12-22T11:18:55.893Z,7.23
2022-12-22T11:21:32.171Z,7.27
2022-12-22T11:24:24.191Z,6.20
2022-12-22T11:27:14.821Z,6.90
2022-12-22T11:30:00.374Z,6.80
2022-12-22T11:32:48.877Z,8.33
2022-12-22T11:35:42.480Z,7.23
2022-12-22T11:38:26.488Z,7.40
2022-12-22T11:41:32.200Z,7.50
2022-12-22T11:44:37.466Z,6.87
2022-12-22T11:47:29.180Z,6.53
2022-12-22T11:51:01.472Z,6.87
2022-12-22T11:53:17.014Z,7.00
2022-12-22T11:56:06.891Z,6.67
2022-12-22T11:58:46.157Z,6.40
2022-12-22T12:01:41.149Z,6.23
2022-12-22T12:04:16.568Z,6.23
2022-12-22T12:07:05.823Z,6.53
2022-12-22T12:10:11.945Z,6.60
2022-12-22T12:13:06.464Z,7.20
2022-12-22T12:15:40.404Z,5.83
2022-12-22T12:18:26.999Z,6.07
2022-12-22T12:21:12.679Z,6.70
2022-12-22T12:23:42.746Z,6.23
2022-12-22T12:26:18.775Z,6.40
2022-12-22T12:28:58.011Z,6.27
2022-12-22T12:31:33.509Z,6.10
2022-12-22T12:34:03.407Z,6.17
2022-12-22T12:37:26.781Z,6.43
2022-12-22T12:40:15.830Z,6.13
2022-12-22T12:42:46.556Z,6.20
2022-12-22T12:45:42.842Z,6.57
2022-12-22T12:48:37.049Z,6.13
2022-12-22T12:51:43.046Z,6.50
2022-12-22T12:54:38.868Z,5.97
2022-12-22T12:57:47.881Z,5.40
2022-12-22T13:00:35.711Z,6.07
2022-12-22T13:03:19.921Z,6.50
2022-12-22T13:06:00.933Z,7.03
2022-12-22T13:08:30.309Z,10.57
2022-12-22T13:10:57.712Z,6.70
2022-12-22T13:13:25.177Z,6.20
2022-12-22T13:16:04.661Z,6.00
2022-12-22T13:18:35.009Z,5.73
2022-12-22T13:24:24.232Z,5.93
2022-12-22T13:26:57.162Z,5.13
2022-12-22T13:29:41.188Z,5.37
2022-12-22T13:32:25.779Z,5.30
2022-12-22T13:37:45.523Z,6.70
2022-12-22T13:40:23.278Z,5.90
2022-12-22T13:42:53.023Z,5.73
2022-12-22T13:45:43.327Z,5.50
2022-12-22T13:48:21.317Z,5.77
2022-12-22T13:50:52.628Z,5.37
2022-12-22T13:54:08.520Z,5.93
2022-12-22T13:56:38.527Z,5.93
2022-12-22T13:59:24.734Z,5.43
2022-12-22T14:02:15.642Z,5.13
2022-12-22T14:05:03.708Z,5.33
2022-12-22T14:07:31.723Z,5.80
2022-12-22T14:09:59.331Z,5.33
2022-12-22T14:12:30.647Z,5.00
2022-12-22T14:15:01.371Z,5.97
2022-12-22T14:17:33.842Z,6.27
2022-12-22T14:20:16.228Z,5.43
2022-12-22T14:22:53.163Z,6.40
2022-12-22T14:25:32.383Z,5.50
2022-12-22T14:28:00.972Z,6.13
2022-12-22T14:30:38.552Z,5.17
2022-12-22T14:33:28.081Z,5.13
2022-12-22T14:36:20.798Z,4.80
2022-12-22T14:39:02.520Z,4.77
2022-12-22T14:41:46.986Z,5.80
2022-12-22T14:44:15.930Z,4.80
2022-12-22T14:46:45.223Z,4.97
2022-12-22T14:49:16.723Z,5.63
2022-12-22T14:52:01.367Z,5.10
2022-12-22T14:54:29.419Z,5.10
2022-12-22T14:57:08.503Z,4.90
2022-12-22T14:59:40.765Z,4.50
2022-12-22T15:02:26.479Z,4.93
2022-12-22T15:05:08.474Z,4.70
2022-12-22T15:08:05.348Z,4.67
2022-12-22T15:10:39.967Z,5.15
2022-12-22T15:13:16.137Z,4.93
2022-12-22T15:15:44.243Z,5.50
2022-12-22T15:18:14.725Z,5.50
2022-12-22T15:20:42.394Z,5.33
2022-12-22T15:23:17.381Z,5.27
2022-12-22T15:25:45.837Z,5.27
2022-12-22T15:28:14.002Z,5.57
2022-12-22T15:30:42.270Z,5.30
2022-12-22T15:33:18.746Z,5.67
2022-12-22T15:35:46.829Z,5.47
2022-12-22T15:38:16.986Z,5.30
2022-12-22T15:40:44.715Z,5.33
2022-12-22T15:43:36.768Z,5.70
2022-12-22T15:46:01.602Z,5.57
2022-12-22T15:48:33.191Z,6.10
2022-12-22T15:51:06.005Z,6.33
2022-12-22T15:53:34.649Z,5.80
2022-12-22T15:56:05.036Z,7.27
2022-12-22T15:58:36.443Z,6.60
2022-12-22T16:01:04.256Z,7.57
2022-12-22T16:03:31.883Z,7.50
2022-12-22T16:06:00.735Z,7.20
2022-12-22T16:08:33.283Z,7.07
2022-12-22T16:11:00.853Z,6.33
2022-12-22T16:13:29.331Z,7.20
2022-12-22T16:15:58.574Z,7.20
2022-12-22T16:18:26.337Z,6.50
2022-12-22T16:20:54.800Z,6.93
2022-12-22T16:23:25.941Z,6.97
2022-12-22T16:26:00.988Z,7.67
2022-12-22T16:28:29.821Z,6.53
2022-12-22T16:30:57.621Z,6.27
2022-12-22T16:33:25.198Z,6.23
2022-12-22T16:35:52.697Z,5.90
2022-12-22T16:38:20.161Z,6.33
2022-12-22T16:40:51.645Z,6.80
2022-12-22T16:43:51.267Z,7.30
2022-12-22T16:46:29.343Z,6.80
2022-12-22T16:49:01.222Z,7.00
2022-12-22T16:51:36.932Z,6.33
2022-12-22T16:54:04.716Z,5.90
2022-12-22T16:56:32.969Z,5.73
2022-12-22T16:59:03.058Z,5.93
2022-12-22T17:01:49.453Z,6.20
2022-12-22T17:04:26.034Z,5.72
2022-12-22T17:06:55.315Z,5.77
2022-12-22T17:09:31.226Z,5.87
2022-12-22T17:12:01.100Z,5.70
2022-12-22T17:14:39.481Z,5.53
2022-12-22T17:17:30.831Z,5.43
2022-12-22T17:19:59.567Z,5.93
2022-12-22T17:22:30.171Z,6.33
2022-12-22T17:25:02.376Z,5.33
2022-12-22T17:27:32.676Z,5.57
2022-12-22T17:30:03.689Z,6.37
2022-12-22T17:32:31.970Z,6.53
2022-12-22T17:34:59.467Z,5.87
2022-12-22T17:37:27.105Z,5.73
2022-12-22T17:39:59.236Z,5.80
2022-12-22T17:42:26.878Z,5.80
2022-12-22T17:44:54.414Z,5.90
2022-12-22T17:47:30.446Z,6.53
2022-12-22T17:49:59.961Z,6.80
2022-12-22T17:52:28.314Z,6.83
2022-12-22T17:54:56.003Z,7.17
2022-12-22T17:57:33.052Z,7.00
2022-12-22T18:00:00.919Z,6.97
2022-12-22T18:02:29.789Z,7.20
2022-12-22T18:04:57.552Z,8.00
2022-12-22T18:07:25.406Z,7.23
2022-12-22T18:09:59.144Z,7.67
2022-12-22T18:12:26.869Z,7.70
2022-12-22T18:14:54.506Z,7.93
2022-12-22T18:17:34.878Z,7.33
2022-12-22T18:20:05.689Z,8.47
2022-12-22T18:22:33.203Z,8.17
2022-12-22T18:25:00.850Z,7.83
2022-12-22T18:27:28.667Z,7.87
2022-12-22T18:29:56.117Z,8.27
2022-12-22T18:32:27.788Z,8.27
2022-12-22T18:34:55.543Z,8.07
2022-12-22T18:37:23.464Z,8.10
2022-12-22T18:39:50.973Z,7.57
2022-12-22T18:42:22.013Z,8.00
2022-12-22T18:44:51.040Z,7.93
2022-12-22T18:47:19.248Z,7.83
2022-12-22T18:49:47.080Z,7.53
2022-12-22T18:52:20.489Z,7.23
2022-12-22T18:54:48.993Z,8.37
2022-12-22T18:57:19.596Z,8.07
2022-12-22T18:59:48.342Z,6.97
2022-12-22T19:02:30.801Z,7.20
2022-12-22T19:04:59.596Z,7.10
2022-12-22T19:07:27.475Z,7.50
2022-12-22T19:09:54.937Z,7.70
2022-12-22T19:12:23.427Z,7.97
2022-12-22T19:14:54.315Z,6.97
2022-12-22T19:17:25.508Z,6.87
2022-12-22T19:19:53.093Z,7.17
2022-12-22T19:22:20.787Z,7.37
2022-12-22T19:24:49.162Z,7.93
2022-12-22T19:27:26.129Z,7.17
2022-12-22T19:30:03.072Z,6.82
2022-12-22T19:32:41.298Z,6.73
2022-12-22T19:35:20.766Z,6.77
2022-12-22T19:37:50.124Z,6.20
2022-12-22T19:40:19.938Z,5.93
2022-12-22T19:42:50.160Z,6.20
2022-12-22T19:45:21.929Z,7.07
2022-12-22T19:47:50.800Z,5.90
2022-12-22T19:50:23.457Z,6.57
2022-12-22T19:52:52.228Z,7.70
2022-12-22T19:55:21.182Z,6.70
2022-12-22T19:57:51.980Z,7.63
2022-12-22T20:00:19.910Z,7.63
2022-12-22T20:02:49.479Z,6.83
2022-12-22T20:05:22.867Z,6.77
2022-12-22T20:07:56.839Z,7.20
2022-12-22T20:10:26.205Z,7.13
2022-12-22T20:12:57.111Z,8.10
2022-12-22T20:15:31.626Z,6.97
2022-12-22T20:17:59.764Z,7.17
2022-12-22T20:20:33.346Z,7.93
2022-12-22T20:23:11.388Z,6.63
2022-12-22T20:25:42.091Z,7.77
2022-12-22T20:28:31.388Z,8.23
2022-12-22T20:31:10.712Z,7.10
2022-12-22T20:33:38.487Z,8.00
2022-12-22T20:36:32.357Z,7.47
2022-12-22T20:39:02.183Z,7.20
2022-12-22T20:41:29.708Z,7.37
2022-12-22T20:43:57.264Z,7.80
2022-12-22T20:46:27.261Z,7.53
2022-12-22T20:49:04.629Z,7.43
2022-12-22T20:51:33.796Z,7.57
2022-12-22T20:54:01.645Z,7.27
2022-12-22T20:56:32.773Z,7.27
2022-12-22T20:59:12.384Z,7.10
2022-12-22T21:01:40.029Z,7.00
2022-12-22T21:04:07.594Z,7.27
2022-12-22T21:06:38.880Z,6.17
2022-12-22T21:09:06.488Z,7.53
2022-12-22T21:11:35.000Z,7.17
2022-12-22T21:14:02.575Z,6.57
2022-12-22T21:16:31.710Z,6.40
2022-12-22T21:18:59.268Z,6.77
2022-12-22T21:21:26.803Z,6.63
2022-12-22T21:23:54.351Z,7.17
2022-12-22T21:26:47.525Z,6.57
2022-12-22T21:29:21.949Z,7.33
2022-12-22T21:31:49.655Z,6.87
2022-12-22T21:34:17.213Z,7.03
2022-12-22T21:36:47.529Z,7.33
2022-12-22T21:39:20.993Z,6.30
2022-12-22T21:42:00.365Z,6.80
2022-12-22T21:44:29.248Z,6.27
2022-12-22T21:46:57.391Z,6.27
2022-12-22T21:49:28.700Z,7.03
2022-12-22T21:51:56.363Z,7.23
2022-12-22T21:54:25.430Z,6.40
2022-12-22T21:56:54.073Z,6.73
2022-12-22T21:59:22.183Z,6.63
2022-12-22T22:01:53.010Z,6.53
2022-12-22T22:04:21.139Z,6.23
2022-12-22T22:06:49.000Z,5.70
2022-12-22T22:09:16.670Z,5.93
2022-12-22T22:12:02.754Z,6.07
2022-12-22T22:14:30.322Z,6.03
2022-12-22T22:16:57.822Z,6.30
2022-12-22T22:19:25.355Z,6.53
2022-12-22T22:21:52.921Z,5.53
2022-12-22T22:24:20.481Z,5.77
2022-12-22T22:26:49.290Z,4.93
2022-12-22T22:29:16.903Z,5.40
2022-12-22T22:31:44.736Z,5.27
2022-12-22T22:34:12.304Z,5.23
2022-12-22T22:36:39.845Z,4.97
2022-12-22T22:39:07.416Z,5.10
2022-12-22T22:41:41.014Z,5.10
2022-12-22T22:44:11.050Z,5.57
2022-12-22T22:46:38.607Z,4.47
2022-12-22T22:49:06.540Z,4.50
2022-12-22T22:51:34.225Z,5.57
2022-12-22T22:54:01.819Z,4.37
2022-12-22T22:56:29.371Z,4.70
2022-12-22T22:58:59.101Z,4.80
2022-12-22T23:01:26.794Z,4.47
2022-12-22T23:03:54.378Z,4.50
2022-12-22T23:06:22.146Z,4.47
2022-12-22T23:08:49.927Z,4.53
2022-12-22T23:11:17.872Z,4.80
2022-12-22T23:13:45.640Z,4.87
2022-12-22T23:16:13.336Z,4.40
2022-12-22T23:18:43.039Z,4.47
2022-12-22T23:21:11.464Z,4.87
2022-12-22T23:23:39.082Z,4.37
2022-12-22T23:26:06.777Z,4.60
2022-12-22T23:28:34.364Z,4.47
2022-12-22T23:31:02.249Z,4.87
2022-12-22T23:33:32.269Z,4.47
2022-12-22T23:35:59.880Z,5.13
2022-12-22T23:38:27.434Z,5.00
2022-12-22T23:41:10.989Z,4.87
2022-12-22T23:43:40.931Z,5.07
2022-12-22T23:46:16.572Z,4.37
2022-12-22T23:48:44.326Z,4.53
2022-12-22T23:51:12.250Z,5.57
2022-12-22T23:53:39.860Z,4.87
2022-12-22T23:56:07.509Z,4.83
2022-12-22T23:58:35.225Z,4.67
